Time;durP1;ratioP1;P1;durP2;ratioP2;P2;SDS_P1;SDS_P2;PMS_P1;PMS_P2;Temp;Humidity;BMP_temperature;BMP_pressure;BME280_temperature;BME280_humidity;BME280_pressure;Samples;Min_cycle;Max_cycle;Signal;HPM_P1;HPM_P2
2023/07/18 00:00:25;;;;;;;6.25;3.70;;;;;;;;;;2545503;23;20311;-94
2023/07/18 00:01:25;;;;;;;3.88;3.55;;;;;;;;;;2546336;23;19994;-93
2023/07/18 00:02:28;;;;;;;5.00;3.80;;;;;;;;;;2545682;23;19999;-93
2023/07/18 00:03:28;;;;;;;4.20;3.25;;;;;;;;;;2534132;23;19993;-94
2023/07/18 00:04:29;;;;;;;6.65;3.55;;;;;;;;;;2544965;23;19989;-94
2023/07/18 00:05:30;;;;;;;8.98;4.03;;;;;;;;;;2545145;23;20109;-94
2023/07/18 00:06:32;;;;;;;4.03;3.17;;;;;;;;;;2545038;23;20079;-94
2023/07/18 00:07:32;;;;;;;5.57;3.75;;;;;;;;;;2544911;23;20510;-94
2023/07/18 00:08:33;;;;;;;9.73;3.65;;;;;;;;;;2544963;23;19997;-93
2023/07/18 00:09:35;;;;;;;5.18;3.58;;;;;;;;;;2532813;23;20345;-93
2023/07/18 00:10:36;;;;;;;6.20;3.92;;;;;;;;;;2548218;23;19989;-95
2023/07/18 00:11:37;;;;;;;8.95;3.55;;;;;;;;;;2544915;23;20071;-95
2023/07/18 00:12:41;;;;;;;4.03;3.42;;;;;;;;;;2548995;23;20001;-93
2023/07/18 00:13:44;;;;;;;6.05;3.58;;;;;;;;;;2549483;23;20041;-94
2023/07/18 00:14:44;;;;;;;4.65;3.40;;;;;;;;;;2549487;23;19998;-93
2023/07/18 00:15:46;;;;;;;6.25;3.67;;;;;;;;;;2545279;23;19998;-93
2023/07/18 00:16:47;;;;;;;5.88;3.65;;;;;;;;;;2533065;23;20459;-94
2023/07/18 00:17:47;;;;;;;4.35;3.17;;;;;;;;;;2549155;23;19994;-94
2023/07/18 00:18:50;;;;;;;4.80;3.50;;;;;;;;;;2544980;23;20083;-93
2023/07/18 00:19:51;;;;;;;5.43;3.72;;;;;;;;;;2549622;23;19994;-94
2023/07/18 00:20:51;;;;;;;7.10;3.88;;;;;;;;;;2544985;23;20123;-93
2023/07/18 00:21:51;;;;;;;5.93;3.50;;;;;;;;;;2544998;23;20367;-93
2023/07/18 00:22:52;;;;;;;4.90;3.10;;;;;;;;;;2557241;23;20001;-93
2023/07/18 00:23:52;;;;;;;6.35;3.70;;;;;;;;;;2561129;23;20097;-93
2023/07/18 00:24:53;;;;;;;7.95;4.07;;;;;;;;;;2545070;23;19997;-94
2023/07/18 00:25:53;;;;;;;3.83;3.38;;;;;;;;;;2534000;23;19998;-94
2023/07/18 00:26:54;;;;;;;5.32;3.50;;;;;;;;;;2535048;23;20443;-93
2023/07/18 00:27:55;;;;;;;8.50;3.65;;;;;;;;;;2551611;23;20013;-94
2023/07/18 00:28:55;;;;;;;6.20;4.00;;;;;;;;;;2547918;23;20083;-92
2023/07/18 00:29:56;;;;;;;4.05;3.33;;;;;;;;;;2536223;23;20009;-92
2023/07/18 00:30:56;;;;;;;4.80;3.53;;;;;;;;;;2533636;23;20005;-93
2023/07/18 00:31:57;;;;;;;6.43;3.78;;;;;;;;;;2546226;23;20045;-95
2023/07/18 00:32:58;;;;;;;7.40;4.32;;;;;;;;;;2545253;23;20384;-94
2023/07/18 00:33:58;;;;;;;4.90;3.40;;;;;;;;;;2532695;23;20452;-94
2023/07/18 00:34:59;;;;;;;5.32;3.63;;;;;;;;;;2545192;23;20420;-94
2023/07/18 00:35:59;;;;;;;5.93;3.60;;;;;;;;;;2545215;23;20454;-94
2023/07/18 00:37:02;;;;;;;7.55;3.65;;;;;;;;;;2532923;23;20002;-93
2023/07/18 00:38:03;;;;;;;4.82;3.63;;;;;;;;;;2533813;23;20018;-94
2023/07/18 00:39:03;;;;;;;4.13;3.42;;;;;;;;;;2533611;23;20005;-94
2023/07/18 00:40:10;;;;;;;4.22;3.47;;;;;;;;;;2532877;23;20005;-95
2023/07/18 00:41:11;;;;;;;5.18;3.60;;;;;;;;;;2537986;23;20025;-94
2023/07/18 00:42:12;;;;;;;6.10;3.38;;;;;;;;;;2532703;23;20073;-94
2023/07/18 00:43:17;;;;;;;6.07;3.85;;;;;;;;;;2532967;23;20025;-93
2023/07/18 00:44:20;;;;;;;7.93;3.97;;;;;;;;;;2533418;23;20060;-95
2023/07/18 00:45:20;;;;;;;4.50;3.70;;;;;;;;;;2549624;23;19997;-93
2023/07/18 00:46:21;;;;;;;9.25;3.80;;;;;;;;;;2544739;23;20375;-94
2023/07/18 00:47:22;;;;;;;6.70;3.23;;;;;;;;;;2103683;23;10336870;-94
2023/07/18 00:48:25;;;;;;;4.93;3.83;;;;;;;;;;2544944;23;19986;-94
2023/07/18 00:49:26;;;;;;;6.20;3.20;;;;;;;;;;2552346;23;19994;-94
2023/07/18 00:50:27;;;;;;;3.95;3.38;;;;;;;;;;2562318;23;20342;-96
2023/07/18 00:51:28;;;;;;;6.05;3.80;;;;;;;;;;2545049;23;20036;-94
2023/07/18 00:52:28;;;;;;;4.93;3.47;;;;;;;;;;2517235;23;20069;-94
2023/07/18 00:53:29;;;;;;;4.25;3.22;;;;;;;;;;2557537;23;20324;-94
2023/07/18 00:54:29;;;;;;;4.93;3.72;;;;;;;;;;2557355;23;20168;-94
2023/07/18 00:55:32;;;;;;;4.40;3.30;;;;;;;;;;2557218;23;20059;-95
2023/07/18 00:56:33;;;;;;;5.18;3.90;;;;;;;;;;2557889;23;20008;-94
2023/07/18 00:57:35;;;;;;;5.30;3.72;;;;;;;;;;2557610;23;20068;-94
2023/07/18 00:58:36;;;;;;;5.45;3.58;;;;;;;;;;2554912;23;19989;-94
2023/07/18 00:59:37;;;;;;;5.05;3.50;;;;;;;;;;2567225;23;19989;-93
2023/07/18 01:00:38;;;;;;;4.88;3.47;;;;;;;;;;2562455;23;19996;-93
2023/07/18 01:01:39;;;;;;;5.55;3.28;;;;;;;;;;2566250;23;20017;-93
2023/07/18 01:02:42;;;;;;;8.18;3.90;;;;;;;;;;2572000;23;20001;-94
2023/07/18 01:03:42;;;;;;;4.47;3.88;;;;;;;;;;2566629;23;20084;-94
2023/07/18 01:04:43;;;;;;;4.65;3.22;;;;;;;;;;2554707;23;20057;-94
2023/07/18 01:05:43;;;;;;;6.05;3.65;;;;;;;;;;2570365;23;19997;-94
2023/07/18 01:07:07;;;;;;;4.97;3.63;;;;;;;;;;2562360;23;20007;-95
2023/07/18 01:08:16;;;;;;;4.57;3.40;;;;;;;;;;2565152;23;20075;-95
2023/07/18 01:09:16;;;;;;;4.88;3.58;;;;;;;;;;2561625;23;19993;-94
2023/07/18 01:10:25;;;;;;;4.22;3.47;;;;;;;;;;2557350;23;20008;-94
2023/07/18 01:11:25;;;;;;;6.35;3.92;;;;;;;;;;2561857;23;20001;-96
2023/07/18 01:12:26;;;;;;;5.93;3.50;;;;;;;;;;2557008;23;20136;-95
2023/07/18 01:13:26;;;;;;;5.05;3.83;;;;;;;;;;2557161;23;20004;-94
2023/07/18 01:14:27;;;;;;;5.90;3.83;;;;;;;;;;2545181;23;20413;-93
2023/07/18 01:15:34;;;;;;;6.05;4.15;;;;;;;;;;2561366;23;20016;-94
2023/07/18 01:16:35;;;;;;;4.20;3.55;;;;;;;;;;2125960;23;10001846;-94
2023/07/18 01:17:36;;;;;;;8.18;4.18;;;;;;;;;;2562199;23;20016;-92
2023/07/18 01:18:37;;;;;;;7.20;4.38;;;;;;;;;;2559379;23;20112;-92
2023/07/18 01:19:37;;;;;;;6.97;3.95;;;;;;;;;;2545525;23;20009;-94
2023/07/18 01:20:38;;;;;;;6.75;3.50;;;;;;;;;;2544772;23;20033;-93
2023/07/18 01:21:39;;;;;;;5.35;3.83;;;;;;;;;;2544510;23;19998;-93
2023/07/18 01:22:39;;;;;;;4.45;3.95;;;;;;;;;;2561044;23;20000;-94
2023/07/18 01:23:40;;;;;;;5.97;3.90;;;;;;;;;;2556657;23;20004;-95
2023/07/18 01:24:40;;;;;;;4.22;3.75;;;;;;;;;;2544462;23;19997;-94
2023/07/18 01:25:41;;;;;;;5.65;4.20;;;;;;;;;;2544649;23;20463;-96
2023/07/18 01:26:42;;;;;;;9.88;4.55;;;;;;;;;;2556746;23;20035;-94
2023/07/18 01:27:44;;;;;;;4.28;3.88;;;;;;;;;;2573451;23;20001;-94
2023/07/18 01:28:44;;;;;;;4.28;3.88;;;;;;;;;;2556625;23;20085;-92
2023/07/18 01:29:46;;;;;;;5.40;4.38;;;;;;;;;;2544612;23;20005;-93
2023/07/18 01:30:46;;;;;;;9.30;4.75;;;;;;;;;;2544473;23;20008;-93
2023/07/18 01:31:48;;;;;;;5.40;4.57;;;;;;;;;;2544366;23;20005;-93
2023/07/18 01:32:52;;;;;;;5.07;4.22;;;;;;;;;;2544496;23;20001;-94
2023/07/18 01:33:53;;;;;;;5.30;4.75;;;;;;;;;;2545070;23;20462;-93
2023/07/18 01:34:53;;;;;;;7.00;4.18;;;;;;;;;;2544398;23;20028;-94
2023/07/18 01:35:53;;;;;;;6.50;4.78;;;;;;;;;;2560981;23;20024;-93
2023/07/18 01:36:54;;;;;;;4.55;4.03;;;;;;;;;;2573471;23;20027;-94
2023/07/18 01:37:56;;;;;;;6.55;4.03;;;;;;;;;;2556913;23;20104;-93
2023/07/18 01:38:57;;;;;;;4.55;3.80;;;;;;;;;;2544642;23;19997;-93
2023/07/18 01:39:57;;;;;;;7.88;4.30;;;;;;;;;;2544415;23;19998;-93
2023/07/18 01:40:59;;;;;;;5.30;4.30;;;;;;;;;;2560834;23;19997;-94
2023/07/18 01:42:02;;;;;;;6.95;4.38;;;;;;;;;;2556878;23;20311;-94
2023/07/18 01:43:02;;;;;;;6.78;4.30;;;;;;;;;;2557170;23;20004;-93
2023/07/18 01:44:04;;;;;;;7.72;4.40;;;;;;;;;;2556949;23;20083;-93
2023/07/18 01:45:05;;;;;;;7.55;4.13;;;;;;;;;;2544740;23;20005;-94
2023/07/18 01:46:06;;;;;;;7.85;4.72;;;;;;;;;;2551165;23;19997;-92
2023/07/18 01:47:06;;;;;;;5.72;4.05;;;;;;;;;;2565470;23;20139;-92
2023/07/18 01:48:06;;;;;;;8.20;4.35;;;;;;;;;;2559803;23;20029;-93
2023/07/18 01:49:08;;;;;;;5.10;4.32;;;;;;;;;;2561851;23;20040;-94
2023/07/18 01:50:10;;;;;;;8.18;4.00;;;;;;;;;;2562194;23;19992;-94
2023/07/18 01:51:10;;;;;;;5.72;4.82;;;;;;;;;;2562247;23;20280;-94
2023/07/18 01:52:11;;;;;;;5.32;4.53;;;;;;;;;;2562103;23;20024;-94
2023/07/18 01:53:11;;;;;;;10.15;5.10;;;;;;;;;;2557033;23;20001;-94
2023/07/18 01:54:12;;;;;;;5.93;4.45;;;;;;;;;;2557249;23;20001;-94
2023/07/18 01:55:12;;;;;;;6.03;4.45;;;;;;;;;;2573835;23;20011;-94
2023/07/18 01:56:13;;;;;;;4.50;4.00;;;;;;;;;;2557135;23;20000;-93
2023/07/18 01:57:13;;;;;;;6.70;4.57;;;;;;;;;;2561466;23;19989;-93
2023/07/18 01:58:13;;;;;;;5.28;4.18;;;;;;;;;;2562098;23;19996;-91
2023/07/18 01:59:14;;;;;;;6.28;4.70;;;;;;;;;;2557184;23;19997;-94
2023/07/18 02:00:20;;;;;;;5.35;3.95;;;;;;;;;;2544896;23;20021;-93
2023/07/18 02:01:20;;;;;;;7.03;4.28;;;;;;;;;;2546076;23;20056;-94
2023/07/18 02:02:21;;;;;;;6.45;4.63;;;;;;;;;;2557063;23;20082;-94
2023/07/18 02:03:22;;;;;;;7.47;4.30;;;;;;;;;;2573105;23;20031;-94
2023/07/18 02:04:22;;;;;;;6.15;4.47;;;;;;;;;;2557170;23;20355;-94
2023/07/18 02:05:30;;;;;;;6.27;4.58;;;;;;;;;;2414740;23;10276636;-90
2023/07/18 02:06:31;;;;;;;5.88;4.25;;;;;;;;;;2571671;23;20256;-94
2023/07/18 02:07:31;;;;;;;5.35;4.65;;;;;;;;;;2557084;23;20029;-94
2023/07/18 02:08:32;;;;;;;7.32;4.38;;;;;;;;;;2556973;23;19993;-95
2023/07/18 02:09:32;;;;;;;5.13;4.40;;;;;;;;;;2569026;23;19996;-93
2023/07/18 02:10:32;;;;;;;6.72;4.63;;;;;;;;;;2544855;23;20131;-95
2023/07/18 02:11:33;;;;;;;4.80;4.30;;;;;;;;;;2557127;23;20409;-94
2023/07/18 02:12:33;;;;;;;7.53;4.50;;;;;;;;;;2573617;23;20024;-95
2023/07/18 02:13:34;;;;;;;6.07;4.72;;;;;;;;;;2557178;23;20064;-95
2023/07/18 02:14:38;;;;;;;6.50;4.60;;;;;;;;;;2561440;23;20445;-95
2023/07/18 02:15:38;;;;;;;8.25;4.88;;;;;;;;;;2556683;23;20020;-93
2023/07/18 02:16:39;;;;;;;8.57;5.22;;;;;;;;;;2557107;23;20438;-93
2023/07/18 02:17:40;;;;;;;9.40;5.25;;;;;;;;;;2544635;23;20068;-94
2023/07/18 02:18:43;;;;;;;7.40;4.40;;;;;;;;;;2556891;23;20001;-94
2023/07/18 02:19:43;;;;;;;6.03;4.75;;;;;;;;;;2560201;23;20004;-93
2023/07/18 02:20:44;;;;;;;7.35;5.25;;;;;;;;;;2550491;23;19997;-93
2023/07/18 02:21:47;;;;;;;6.18;5.32;;;;;;;;;;2566806;23;20052;-94
2023/07/18 02:22:48;;;;;;;9.10;5.05;;;;;;;;;;2563029;23;20028;-94
2023/07/18 02:23:48;;;;;;;6.35;4.38;;;;;;;;;;2561568;23;20012;-94
2023/07/18 02:24:49;;;;;;;7.53;4.97;;;;;;;;;;2556833;23;20001;-95
2023/07/18 02:25:49;;;;;;;5.43;4.68;;;;;;;;;;2544842;23;20437;-94
2023/07/18 02:26:50;;;;;;;7.07;5.53;;;;;;;;;;2544408;23;20010;-94
2023/07/18 02:27:50;;;;;;;6.18;4.90;;;;;;;;;;2544470;23;20091;-95
2023/07/18 02:28:51;;;;;;;6.30;4.97;;;;;;;;;;2561310;23;20064;-94
2023/07/18 02:29:51;;;;;;;6.50;4.43;;;;;;;;;;2561846;23;20480;-94
2023/07/18 02:30:52;;;;;;;7.78;4.75;;;;;;;;;;2557236;23;20047;-93
2023/07/18 02:31:53;;;;;;;6.75;4.60;;;;;;;;;;2544720;23;19994;-94
2023/07/18 02:32:54;;;;;;;8.38;4.55;;;;;;;;;;2556761;23;19997;-93
2023/07/18 02:33:54;;;;;;;7.60;4.78;;;;;;;;;;2556878;23;19997;-93
2023/07/18 02:34:55;;;;;;;9.63;5.50;;;;;;;;;;2544398;23;19998;-94
2023/07/18 02:35:56;;;;;;;8.32;5.10;;;;;;;;;;2544716;23;20480;-94
2023/07/18 02:36:56;;;;;;;6.20;4.32;;;;;;;;;;2556916;23;19993;-94
2023/07/18 02:37:57;;;;;;;5.78;4.70;;;;;;;;;;2556743;23;19993;-93
2023/07/18 02:38:57;;;;;;;5.78;4.40;;;;;;;;;;2556768;23;19997;-93
2023/07/18 02:39:58;;;;;;;6.45;5.22;;;;;;;;;;2568991;23;20000;-93
2023/07/18 02:40:58;;;;;;;8.52;5.55;;;;;;;;;;2561044;23;19993;-93
2023/07/18 02:41:58;;;;;;;7.03;4.03;;;;;;;;;;2561764;23;20004;-93
2023/07/18 02:43:00;;;;;;;6.63;4.80;;;;;;;;;;2556395;23;20004;-93
2023/07/18 02:44:00;;;;;;;7.82;4.97;;;;;;;;;;2556795;23;20004;-94
2023/07/18 02:45:01;;;;;;;5.93;4.78;;;;;;;;;;2561022;23;20024;-93
2023/07/18 02:46:01;;;;;;;6.75;5.03;;;;;;;;;;2569316;23;20022;-94
2023/07/18 02:47:02;;;;;;;5.45;4.95;;;;;;;;;;2573605;23;20020;-93
2023/07/18 02:48:06;;;;;;;7.18;5.20;;;;;;;;;;2570800;23;20050;-96
2023/07/18 02:49:07;;;;;;;5.90;5.30;;;;;;;;;;2557579;23;20091;-93
2023/07/18 02:50:08;;;;;;;7.88;5.53;;;;;;;;;;2557011;23;20439;-95
2023/07/18 02:51:08;;;;;;;7.72;5.55;;;;;;;;;;2544267;23;20396;-93
2023/07/18 02:52:09;;;;;;;8.13;5.18;;;;;;;;;;2544612;23;20024;-94
2023/07/18 02:53:10;;;;;;;7.15;5.05;;;;;;;;;;2545201;23;20001;-91
2023/07/18 02:54:10;;;;;;;7.85;5.20;;;;;;;;;;2546401;23;20017;-94
2023/07/18 02:55:11;;;;;;;7.18;5.72;;;;;;;;;;2556886;23;20361;-93
2023/07/18 02:56:11;;;;;;;6.45;5.72;;;;;;;;;;2557085;23;20134;-95
2023/07/18 02:57:12;;;;;;;10.73;6.00;;;;;;;;;;2561162;23;20107;-93
2023/07/18 02:58:12;;;;;;;7.80;5.35;;;;;;;;;;2569448;23;20063;-93
2023/07/18 02:59:13;;;;;;;8.85;5.50;;;;;;;;;;2557726;23;20052;-92
2023/07/18 03:00:19;;;;;;;7.43;5.88;;;;;;;;;;2546232;23;20009;-93
2023/07/18 03:01:20;;;;;;;7.20;5.68;;;;;;;;;;2546464;23;20379;-94
2023/07/18 03:02:20;;;;;;;9.13;5.63;;;;;;;;;;2544943;23;20006;-95
2023/07/18 03:03:22;;;;;;;6.93;5.40;;;;;;;;;;2544478;23;20001;-95
2023/07/18 03:04:26;;;;;;;9.07;5.72;;;;;;;;;;2557167;23;19993;-95
2023/07/18 03:05:27;;;;;;;6.95;5.47;;;;;;;;;;2545237;23;19994;-95
2023/07/18 03:06:29;;;;;;;7.57;5.75;;;;;;;;;;2560980;23;20272;-93
2023/07/18 03:07:29;;;;;;;7.03;5.55;;;;;;;;;;2557249;23;19997;-94
2023/07/18 03:08:32;;;;;;;7.53;5.60;;;;;;;;;;2561764;23;20068;-94
2023/07/18 03:09:34;;;;;;;9.90;5.57;;;;;;;;;;2561964;23;19995;-94
2023/07/18 03:10:36;;;;;;;8.35;5.40;;;;;;;;;;2561789;23;20004;-94
2023/07/18 03:11:39;;;;;;;9.50;5.53;;;;;;;;;;2556756;23;19989;-94
2023/07/18 03:12:42;;;;;;;9.32;5.95;;;;;;;;;;2556723;23;20289;-94
2023/07/18 03:13:42;;;;;;;7.35;5.30;;;;;;;;;;2556837;23;19997;-95
2023/07/18 03:14:43;;;;;;;6.07;5.38;;;;;;;;;;2561219;23;19993;-94
2023/07/18 03:15:44;;;;;;;6.82;5.50;;;;;;;;;;2569506;23;20020;-94
2023/07/18 03:16:45;;;;;;;9.63;5.22;;;;;;;;;;2556617;23;19993;-94
2023/07/18 03:18:04;;;;;;;7.68;5.75;;;;;;;;;;2544519;23;20080;-94
2023/07/18 03:19:05;;;;;;;6.18;5.25;;;;;;;;;;2548142;23;20001;-93
2023/07/18 03:20:16;;;;;;;8.32;5.97;;;;;;;;;;2544748;23;20039;-96
2023/07/18 03:21:17;;;;;;;10.90;5.63;;;;;;;;;;2550593;23;20498;-94
2023/07/18 03:22:17;;;;;;;7.57;5.28;;;;;;;;;;2544428;23;20036;-95
2023/07/18 03:23:18;;;;;;;7.97;5.40;;;;;;;;;;2561051;23;20459;-95
2023/07/18 03:24:20;;;;;;;6.38;5.55;;;;;;;;;;2556717;23;20024;-93
2023/07/18 03:25:20;;;;;;;6.45;4.95;;;;;;;;;;2544612;23;20048;-95
2023/07/18 03:26:21;;;;;;;8.65;5.90;;;;;;;;;;2556739;23;20438;-94
2023/07/18 03:27:21;;;;;;;7.45;5.68;;;;;;;;;;2573165;23;20142;-95
2023/07/18 03:28:22;;;;;;;9.00;5.28;;;;;;;;;;2557048;23;20067;-94
2023/07/18 03:29:23;;;;;;;12.57;6.10;;;;;;;;;;2544626;23;20013;-95
2023/07/18 03:30:24;;;;;;;12.02;6.20;;;;;;;;;;2544571;23;19997;-94
2023/07/18 03:31:24;;;;;;;8.82;5.70;;;;;;;;;;2544803;23;20045;-96
2023/07/18 03:32:25;;;;;;;8.05;5.72;;;;;;;;;;2544244;23;20080;-94
2023/07/18 03:33:26;;;;;;;11.25;5.07;;;;;;;;;;2556664;23;19993;-94
2023/07/18 03:34:28;;;;;;;7.82;5.60;;;;;;;;;;2556560;23;20284;-93
2023/07/18 03:35:29;;;;;;;7.13;5.15;;;;;;;;;;2556957;23;20450;-94
2023/07/18 03:36:29;;;;;;;7.80;5.18;;;;;;;;;;2563307;23;20102;-94
2023/07/18 03:37:32;;;;;;;6.82;5.47;;;;;;;;;;2566862;23;20063;-92
2023/07/18 03:38:35;;;;;;;10.15;5.18;;;;;;;;;;2566897;23;20127;-93
2023/07/18 03:39:36;;;;;;;7.68;4.93;;;;;;;;;;2560686;23;20000;-94
2023/07/18 03:40:36;;;;;;;6.68;5.25;;;;;;;;;;2561689;23;20008;-94
2023/07/18 03:41:37;;;;;;;6.57;5.72;;;;;;;;;;2572586;23;20500;-93
2023/07/18 03:42:37;;;;;;;10.20;5.65;;;;;;;;;;2557373;23;20024;-94
2023/07/18 03:43:37;;;;;;;10.90;6.32;;;;;;;;;;2561334;23;19993;-94
2023/07/18 03:44:40;;;;;;;10.93;5.80;;;;;;;;;;2561718;23;20067;-93
2023/07/18 03:45:41;;;;;;;7.63;6.32;;;;;;;;;;2561736;23;20339;-95
2023/07/18 03:46:41;;;;;;;8.52;6.13;;;;;;;;;;2561666;23;20079;-94
2023/07/18 03:47:45;;;;;;;8.10;5.82;;;;;;;;;;2556721;23;19996;-95
2023/07/18 03:48:45;;;;;;;10.35;7.13;;;;;;;;;;2560953;23;19997;-94
2023/07/18 03:49:46;;;;;;;7.82;5.95;;;;;;;;;;2556794;23;20459;-94
2023/07/18 03:50:46;;;;;;;8.32;6.32;;;;;;;;;;2561287;23;20020;-94
2023/07/18 03:51:47;;;;;;;7.45;5.80;;;;;;;;;;2556463;23;20380;-94
2023/07/18 03:52:48;;;;;;;10.20;6.65;;;;;;;;;;2544324;23;19993;-94
2023/07/18 03:53:50;;;;;;;8.10;6.95;;;;;;;;;;2124956;23;10116131;-93
2023/07/18 03:54:51;;;;;;;9.60;6.03;;;;;;;;;;2556816;23;20418;-92
2023/07/18 03:55:51;;;;;;;11.20;6.32;;;;;;;;;;2543984;23;20002;-94
2023/07/18 03:56:52;;;;;;;12.82;5.85;;;;;;;;;;2561273;23;19999;-92
2023/07/18 03:57:56;;;;;;;9.38;6.05;;;;;;;;;;2556605;23;20020;-94
2023/07/18 03:58:56;;;;;;;10.45;6.60;;;;;;;;;;2545159;23;20004;-92
2023/07/18 03:59:57;;;;;;;7.18;5.80;;;;;;;;;;2560965;23;20025;-94
2023/07/18 04:00:58;;;;;;;10.40;5.82;;;;;;;;;;2556492;23;20384;-93
2023/07/18 04:01:58;;;;;;;7.63;5.47;;;;;;;;;;2544388;23;20007;-93
2023/07/18 04:02:58;;;;;;;11.77;6.13;;;;;;;;;;2544897;23;20001;-93
2023/07/18 04:04:01;;;;;;;9.60;6.72;;;;;;;;;;2557714;23;20000;-95
2023/07/18 04:05:02;;;;;;;8.00;6.13;;;;;;;;;;2557817;23;20075;-94
2023/07/18 04:06:03;;;;;;;7.32;6.00;;;;;;;;;;2557518;23;20151;-93
2023/07/18 04:07:06;;;;;;;10.73;5.75;;;;;;;;;;2574062;23;19996;-93
2023/07/18 04:08:06;;;;;;;9.23;6.05;;;;;;;;;;2557435;23;20005;-93
2023/07/18 04:09:07;;;;;;;9.73;5.65;;;;;;;;;;2544916;23;20347;-93
2023/07/18 04:10:08;;;;;;;12.88;5.75;;;;;;;;;;2561502;23;19993;-94
2023/07/18 04:11:08;;;;;;;7.28;6.07;;;;;;;;;;2562662;23;20428;-94
2023/07/18 04:12:09;;;;;;;7.30;6.15;;;;;;;;;;2557527;23;19993;-92
2023/07/18 04:13:09;;;;;;;13.95;7.97;;;;;;;;;;2545922;23;20028;-92
2023/07/18 04:14:10;;;;;;;10.13;5.85;;;;;;;;;;2546429;23;20017;-94
2023/07/18 04:15:12;;;;;;;7.20;5.75;;;;;;;;;;2546507;23;20359;-93
2023/07/18 04:16:13;;;;;;;6.68;6.00;;;;;;;;;;2546601;23;20001;-94
2023/07/18 04:17:13;;;;;;;11.43;6.38;;;;;;;;;;2545708;23;20357;-93
2023/07/18 04:18:14;;;;;;;8.20;5.97;;;;;;;;;;2558329;23;20078;-93
2023/07/18 04:19:14;;;;;;;10.10;5.93;;;;;;;;;;2558227;23;20094;-93
2023/07/18 04:20:18;;;;;;;7.28;6.32;;;;;;;;;;2545121;23;19998;-94
2023/07/18 04:21:21;;;;;;;10.40;6.55;;;;;;;;;;2545533;23;20160;-93
2023/07/18 04:22:21;;;;;;;8.50;5.72;;;;;;;;;;2562014;23;20021;-93
2023/07/18 04:23:21;;;;;;;9.23;5.55;;;;;;;;;;2562517;23;20056;-93
2023/07/18 04:24:22;;;;;;;8.35;5.90;;;;;;;;;;2557523;23;20043;-94
2023/07/18 04:25:22;;;;;;;7.93;5.82;;;;;;;;;;2544979;23;19993;-94
2023/07/18 04:26:23;;;;;;;10.48;6.35;;;;;;;;;;2545077;23;20370;-94
2023/07/18 04:27:26;;;;;;;8.70;6.25;;;;;;;;;;2544983;23;20053;-93
2023/07/18 04:28:28;;;;;;;7.82;6.10;;;;;;;;;;2562435;23;20527;-94
2023/07/18 04:29:28;;;;;;;7.93;6.32;;;;;;;;;;2560307;23;20338;-93
2023/07/18 04:30:29;;;;;;;8.77;5.95;;;;;;;;;;2561669;23;20009;-93
2023/07/18 04:31:30;;;;;;;7.38;6.00;;;;;;;;;;2557595;23;20004;-94
2023/07/18 04:32:30;;;;;;;7.00;5.55;;;;;;;;;;2545272;23;19989;-94
2023/07/18 04:33:34;;;;;;;7.88;5.10;;;;;;;;;;2561754;23;20067;-94
2023/07/18 04:34:37;;;;;;;10.43;5.90;;;;;;;;;;2562350;23;20488;-94
2023/07/18 04:35:37;;;;;;;8.45;5.40;;;;;;;;;;2562688;23;20016;-93
2023/07/18 04:36:40;;;;;;;9.63;6.78;;;;;;;;;;2556709;23;20016;-94
2023/07/18 04:37:41;;;;;;;6.95;5.32;;;;;;;;;;2545701;23;20001;-94
2023/07/18 04:38:41;;;;;;;8.05;5.57;;;;;;;;;;2545181;23;20499;-94
2023/07/18 04:39:42;;;;;;;8.98;6.15;;;;;;;;;;2561790;23;20016;-94
2023/07/18 04:40:43;;;;;;;9.60;5.60;;;;;;;;;;2557548;23;20435;-94
2023/07/18 04:41:43;;;;;;;7.63;5.13;;;;;;;;;;2557406;23;20365;-93
2023/07/18 04:42:44;;;;;;;7.90;5.60;;;;;;;;;;2557522;23;20074;-93
2023/07/18 04:43:44;;;;;;;5.40;4.70;;;;;;;;;;2559932;23;20005;-95
2023/07/18 04:44:47;;;;;;;7.72;4.88;;;;;;;;;;2563042;23;19997;-93
2023/07/18 04:45:49;;;;;;;9.63;5.30;;;;;;;;;;2559277;23;20001;-94
2023/07/18 04:46:50;;;;;;;7.30;5.10;;;;;;;;;;2545746;23;20061;-94
2023/07/18 04:47:53;;;;;;;7.78;5.07;;;;;;;;;;2546262;23;20037;-94
2023/07/18 04:49:04;;;;;;;5.22;4.70;;;;;;;;;;2546925;23;20029;-93
2023/07/18 04:52:27;;;;;;;20.98;5.97;;;;;;;;;;2488806;23;20003;-94
2023/07/18 04:53:28;;;;;;;9.40;5.10;;;;;;;;;;2489003;23;20103;-94
2023/07/18 04:54:29;;;;;;;7.65;4.70;;;;;;;;;;2474601;23;20000;-95
2023/07/18 04:55:29;;;;;;;7.63;4.70;;;;;;;;;;2483863;23;20088;-92
2023/07/18 04:56:30;;;;;;;6.15;5.28;;;;;;;;;;2524811;23;19994;-93
2023/07/18 04:57:31;;;;;;;7.57;4.50;;;;;;;;;;2524438;23;20077;-94
2023/07/18 04:58:32;;;;;;;7.57;4.65;;;;;;;;;;2508354;23;19999;-93
2023/07/18 04:59:32;;;;;;;6.95;4.45;;;;;;;;;;2508339;23;20026;-93
2023/07/18 05:00:34;;;;;;;7.57;4.35;;;;;;;;;;2508339;23;19998;-93
2023/07/18 05:01:36;;;;;;;5.72;4.10;;;;;;;;;;2508526;23;20083;-94
2023/07/18 05:02:38;;;;;;;5.50;4.55;;;;;;;;;;2508766;23;20353;-94
2023/07/18 05:03:38;;;;;;;7.38;4.20;;;;;;;;;;2513251;23;19995;-95
2023/07/18 05:04:39;;;;;;;6.60;3.92;;;;;;;;;;2509389;23;20066;-93
2023/07/18 05:05:43;;;;;;;7.32;4.40;;;;;;;;;;2509419;23;20012;-93
2023/07/18 05:06:43;;;;;;;5.30;4.13;;;;;;;;;;2509156;23;20526;-94
2023/07/18 05:07:44;;;;;;;6.90;5.22;;;;;;;;;;2524975;23;20043;-93
2023/07/18 05:08:45;;;;;;;7.20;4.47;;;;;;;;;;2524550;23;20003;-92
2023/07/18 05:09:48;;;;;;;6.47;4.47;;;;;;;;;;2520206;23;20349;-93
2023/07/18 05:10:50;;;;;;;6.22;4.10;;;;;;;;;;2508564;23;20010;-94
2023/07/18 05:11:50;;;;;;;7.78;4.00;;;;;;;;;;2075261;23;10365784;-94
2023/07/18 05:12:55;;;;;;;3.95;3.55;;;;;;;;;;2508239;23;20031;-92
2023/07/18 05:13:55;;;;;;;3.92;3.53;;;;;;;;;;2287078;23;5001622;-93
2023/07/18 05:14:56;;;;;;;5.28;3.50;;;;;;;;;;2467416;23;20044;-94
2023/07/18 05:16:00;;;;;;;4.20;3.25;;;;;;;;;;2082164;23;10204321;-93
2023/07/18 05:17:00;;;;;;;4.10;3.58;;;;;;;;;;2508291;23;19994;-93
2023/07/18 05:18:10;;;;;;;4.53;3.20;;;;;;;;;;2520498;23;20043;-95
2023/07/18 05:19:10;;;;;;;6.75;4.10;;;;;;;;;;2508452;23;20003;-94
2023/07/18 05:20:11;;;;;;;5.03;3.42;;;;;;;;;;2508414;23;20003;-94
2023/07/18 05:21:12;;;;;;;5.47;3.60;;;;;;;;;;2508569;23;20009;-94
2023/07/18 05:22:12;;;;;;;6.10;4.07;;;;;;;;;;2496530;23;20102;-96
2023/07/18 05:23:15;;;;;;;4.13;3.28;;;;;;;;;;2508314;23;20073;-94
2023/07/18 05:24:16;;;;;;;5.03;3.90;;;;;;;;;;2508652;23;20010;-94
2023/07/18 05:25:19;;;;;;;5.20;4.07;;;;;;;;;;2512856;23;19999;-94
2023/07/18 05:26:19;;;;;;;5.32;3.80;;;;;;;;;;2524803;23;20069;-94
2023/07/18 05:27:21;;;;;;;5.70;3.70;;;;;;;;;;2524902;23;20009;-93
2023/07/18 05:28:22;;;;;;;4.25;3.72;;;;;;;;;;2549776;23;20004;-92
2023/07/18 05:29:23;;;;;;;12.40;4.45;;;;;;;;;;2563083;23;19989;-92
2023/07/18 05:30:23;;;;;;;5.53;3.78;;;;;;;;;;2562563;23;20064;-93
2023/07/18 05:31:24;;;;;;;5.10;3.75;;;;;;;;;;2557165;23;19997;-96
2023/07/18 05:32:25;;;;;;;5.20;3.88;;;;;;;;;;2561919;23;20001;-93
2023/07/18 05:33:25;;;;;;;9.25;4.15;;;;;;;;;;2558013;23;20015;-94
2023/07/18 05:34:25;;;;;;;5.75;3.53;;;;;;;;;;2545097;23;19993;-94
2023/07/18 05:35:26;;;;;;;5.07;3.90;;;;;;;;;;2561953;23;20012;-95
2023/07/18 05:36:27;;;;;;;6.80;4.18;;;;;;;;;;2117629;23;10294887;-94
2023/07/18 05:37:29;;;;;;;6.38;3.80;;;;;;;;;;2544714;23;20423;-94
2023/07/18 05:38:29;;;;;;;4.63;3.58;;;;;;;;;;2561341;23;20000;-94
2023/07/18 05:39:30;;;;;;;5.70;3.95;;;;;;;;;;2562174;23;20430;-94
2023/07/18 05:40:30;;;;;;;10.32;4.20;;;;;;;;;;2562085;23;19989;-93
2023/07/18 05:41:31;;;;;;;4.95;3.80;;;;;;;;;;2557181;23;20520;-93
2023/07/18 05:42:32;;;;;;;4.47;3.65;;;;;;;;;;2561124;23;20055;-93
2023/07/18 05:43:32;;;;;;;7.45;3.58;;;;;;;;;;2556970;23;20435;-94
2023/07/18 05:44:33;;;;;;;5.15;3.67;;;;;;;;;;2561030;23;20059;-95
2023/07/18 05:45:33;;;;;;;7.22;4.03;;;;;;;;;;2556843;23;20060;-94
2023/07/18 05:46:33;;;;;;;7.85;3.97;;;;;;;;;;2544656;23;19993;-94
2023/07/18 05:47:35;;;;;;;6.18;3.40;;;;;;;;;;2561359;23;20393;-95
2023/07/18 05:48:35;;;;;;;6.70;4.03;;;;;;;;;;2561875;23;19996;-95
2023/07/18 05:49:36;;;;;;;4.60;3.60;;;;;;;;;;2556799;23;20011;-93
2023/07/18 05:50:37;;;;;;;6.95;3.90;;;;;;;;;;2544820;23;20458;-95
2023/07/18 05:51:42;;;;;;;4.07;3.42;;;;;;;;;;2544628;23;19993;-96
2023/07/18 05:52:43;;;;;;;5.47;4.07;;;;;;;;;;2561395;23;19997;-95
2023/07/18 05:53:43;;;;;;;5.60;3.80;;;;;;;;;;2556911;23;19997;-94
2023/07/18 05:54:46;;;;;;;4.95;3.60;;;;;;;;;;2546246;23;20004;-94
2023/07/18 05:55:50;;;;;;;4.45;3.60;;;;;;;;;;2545272;23;20292;-92
2023/07/18 05:56:50;;;;;;;5.20;3.97;;;;;;;;;;2545304;23;20000;-95
2023/07/18 05:57:51;;;;;;;4.82;3.45;;;;;;;;;;2557127;23;20008;-94
2023/07/18 05:58:51;;;;;;;4.47;3.58;;;;;;;;;;2556925;23;20008;-95
2023/07/18 05:59:52;;;;;;;4.97;3.88;;;;;;;;;;2556956;23;20001;-95
2023/07/18 06:00:52;;;;;;;5.75;3.50;;;;;;;;;;2556811;23;20071;-94
2023/07/18 06:01:53;;;;;;;5.68;3.88;;;;;;;;;;2544737;23;20020;-95
2023/07/18 06:02:53;;;;;;;5.72;3.90;;;;;;;;;;2556667;23;20021;-95
2023/07/18 06:03:54;;;;;;;5.80;3.97;;;;;;;;;;2556828;23;20218;-95
2023/07/18 06:04:55;;;;;;;5.50;3.58;;;;;;;;;;2546761;23;20111;-92
2023/07/18 06:05:55;;;;;;;5.07;3.42;;;;;;;;;;2560160;23;20355;-95
2023/07/18 06:06:56;;;;;;;5.82;3.80;;;;;;;;;;2562276;23;20116;-95
2023/07/18 06:07:56;;;;;;;4.90;3.70;;;;;;;;;;2556897;23;20001;-94
2023/07/18 06:08:57;;;;;;;4.28;3.78;;;;;;;;;;2561489;23;19992;-94